Terminal Aerodrome Forecast
Issued by NWS Memphis, TN

Home | Current Version | Previous Version | Text Only | Print | Product List | Glossary On
Versions: 1 2 3 4 5 6 7 8 9 10 11 12 13 14 15 16 17 18 19 20 21 22 23 24 25 26 27 28 29
000
FTUS44 KMEG 261501 AAA
TAFMEM
TAF AMD
KMEM 261501Z 2615/2712 19005KT P6SM FEW080 SCT250
     FM261900 12006KT P6SM VCTS SCT060CB BKN120
     FM270000 11005KT P6SM FEW150 SCT250=

USA.gov is the U.S. government's official web portal to all federal, state and local government web resources and services.